createdAt,value
2023-05-09T00:00:47.334Z,26.82
2023-05-09T00:01:47.384Z,26.79
2023-05-09T00:02:47.466Z,26.81
2023-05-09T00:03:47.359Z,26.79
2023-05-09T00:04:47.380Z,26.81
2023-05-09T00:05:47.365Z,26.81
2023-05-09T00:06:47.285Z,26.81
2023-05-09T00:07:47.306Z,26.79
2023-05-09T00:08:47.282Z,26.81
2023-05-09T00:09:47.293Z,26.82
2023-05-09T00:10:47.270Z,26.79
2023-05-09T00:11:47.265Z,26.81
2023-05-09T00:12:47.313Z,26.81
2023-05-09T00:13:47.254Z,26.81
2023-05-09T00:14:47.282Z,26.81
2023-05-09T00:15:47.313Z,26.79
2023-05-09T00:16:47.300Z,26.81
2023-05-09T00:17:47.221Z,26.82
2023-05-09T00:18:47.301Z,26.79
2023-05-09T00:19:47.219Z,26.79
2023-05-09T00:20:47.191Z,26.79
2023-05-09T00:21:47.185Z,26.81
2023-05-09T00:22:47.175Z,26.81
2023-05-09T00:23:47.192Z,26.81
2023-05-09T00:24:47.165Z,26.81
2023-05-09T00:25:47.159Z,26.82
2023-05-09T00:26:47.158Z,26.78
2023-05-09T00:27:47.106Z,26.78
2023-05-09T00:28:47.137Z,26.82
2023-05-09T00:29:47.132Z,26.81
2023-05-09T00:30:47.112Z,26.79
2023-05-09T00:31:47.143Z,26.81
2023-05-09T00:32:47.127Z,26.79
2023-05-09T00:33:47.109Z,26.78
2023-05-09T00:34:47.168Z,26.79
2023-05-09T00:35:47.092Z,26.82
2023-05-09T00:36:47.057Z,26.79
2023-05-09T00:37:47.075Z,26.79
2023-05-09T00:38:47.075Z,26.78
2023-05-09T00:39:47.066Z,26.79
2023-05-09T00:40:47.038Z,26.79
2023-05-09T00:41:47.052Z,26.79
2023-05-09T00:42:47.017Z,26.78
2023-05-09T00:43:47.005Z,26.78
2023-05-09T00:44:47.033Z,26.79
2023-05-09T00:45:47.023Z,26.76
2023-05-09T00:46:46.976Z,26.78
2023-05-09T00:47:47.029Z,26.78
2023-05-09T00:48:46.993Z,26.79
2023-05-09T00:49:46.956Z,26.79
2023-05-09T00:50:47.060Z,26.79
2023-05-09T00:51:46.964Z,26.81
2023-05-09T00:52:46.976Z,26.78
2023-05-09T00:53:46.949Z,26.78
2023-05-09T00:54:46.990Z,26.79
2023-05-09T00:55:46.936Z,26.78
2023-05-09T00:56:46.940Z,26.79
2023-05-09T00:57:46.915Z,26.79
2023-05-09T00:58:46.898Z,26.81
2023-05-09T00:59:46.885Z,26.79
2023-05-09T01:00:46.920Z,26.81
2023-05-09T01:01:47.029Z,26.79
2023-05-09T01:02:46.943Z,26.79
2023-05-09T01:03:46.978Z,26.78
2023-05-09T01:04:46.873Z,26.79
2023-05-09T01:05:46.824Z,26.81
2023-05-09T01:06:46.929Z,26.81
2023-05-09T01:07:46.810Z,26.81
2023-05-09T01:08:46.813Z,26.79
2023-05-09T01:09:46.796Z,26.79
2023-05-09T01:10:46.827Z,26.79
2023-05-09T01:11:46.810Z,26.78
2023-05-09T01:12:46.811Z,26.79
2023-05-09T01:13:46.800Z,26.79
2023-05-09T01:14:46.772Z,26.79
2023-05-09T01:15:46.843Z,26.76
2023-05-09T01:16:46.762Z,26.78
2023-05-09T01:17:46.808Z,26.79
2023-05-09T01:18:46.752Z,26.79
2023-05-09T01:19:46.776Z,26.78
2023-05-09T01:20:46.739Z,26.79
2023-05-09T01:21:46.708Z,26.79
2023-05-09T01:22:46.817Z,26.76
2023-05-09T01:23:46.730Z,26.79
2023-05-09T01:24:46.694Z,26.79
2023-05-09T01:25:46.705Z,26.79
2023-05-09T01:26:46.696Z,26.79
2023-05-09T01:27:46.683Z,26.78
2023-05-09T01:28:46.677Z,26.78
2023-05-09T01:29:46.672Z,26.82
2023-05-09T01:30:46.693Z,26.76
2023-05-09T01:31:46.845Z,26.76
2023-05-09T01:32:46.688Z,26.79
2023-05-09T01:33:46.686Z,26.78
2023-05-09T01:34:46.646Z,26.78
2023-05-09T01:35:46.657Z,26.79
2023-05-09T01:36:46.641Z,26.76
2023-05-09T01:37:46.645Z,26.78
2023-05-09T01:38:46.732Z,26.81
2023-05-09T01:39:46.604Z,26.78
2023-05-09T01:40:46.606Z,26.79
2023-05-09T01:41:46.609Z,26.78
2023-05-09T01:42:46.576Z,26.79
2023-05-09T01:43:46.642Z,26.78
2023-05-09T01:44:46.579Z,26.78
2023-05-09T01:45:46.598Z,26.78
2023-05-09T01:46:46.589Z,26.79
2023-05-09T01:47:46.566Z,26.78
2023-05-09T01:48:46.563Z,26.82
2023-05-09T01:49:46.536Z,26.81
2023-05-09T01:50:46.550Z,26.78
2023-05-09T01:51:46.555Z,26.78
2023-05-09T01:52:46.514Z,26.78
2023-05-09T01:53:46.503Z,26.79
2023-05-09T01:54:46.610Z,26.79
2023-05-09T01:55:46.522Z,26.75
2023-05-09T01:56:46.471Z,26.76
2023-05-09T01:57:46.500Z,26.78
2023-05-09T01:58:46.492Z,26.78
2023-05-09T01:59:46.492Z,26.78
2023-05-09T02:00:46.537Z,26.78
2023-05-09T02:01:46.466Z,26.78
2023-05-09T02:02:46.498Z,26.76
2023-05-09T02:03:46.442Z,26.78
2023-05-09T02:04:46.450Z,26.79
2023-05-09T02:05:46.457Z,26.81
2023-05-09T02:06:46.414Z,26.78
2023-05-09T02:07:46.437Z,26.78
2023-05-09T02:08:46.438Z,26.78
2023-05-09T02:09:46.432Z,26.76
2023-05-09T02:10:46.492Z,26.78
2023-05-09T02:11:46.412Z,26.75
2023-05-09T02:12:46.363Z,26.76
2023-05-09T02:13:46.377Z,26.79
2023-05-09T02:14:46.360Z,26.78
2023-05-09T02:15:46.390Z,26.79
2023-05-09T02:16:46.389Z,26.78
2023-05-09T02:17:46.358Z,26.78
2023-05-09T02:18:46.338Z,26.79
2023-05-09T02:19:46.310Z,26.78
2023-05-09T02:20:46.346Z,26.79
2023-05-09T02:21:46.315Z,26.76
2023-05-09T02:22:46.299Z,26.76
2023-05-09T02:23:46.289Z,26.76
2023-05-09T02:24:46.270Z,26.79
2023-05-09T02:25:46.279Z,26.75
2023-05-09T02:26:46.368Z,26.76
2023-05-09T02:27:46.256Z,26.76
2023-05-09T02:28:46.257Z,26.76
2023-05-09T02:29:46.230Z,26.76
2023-05-09T02:30:46.260Z,26.78
2023-05-09T02:31:46.295Z,26.75
2023-05-09T02:32:46.262Z,26.78
2023-05-09T02:33:46.207Z,26.76
2023-05-09T02:34:46.223Z,26.76
2023-05-09T02:35:46.200Z,26.76
2023-05-09T02:36:46.180Z,26.75
2023-05-09T02:37:46.207Z,26.75
2023-05-09T02:38:46.166Z,26.75
2023-05-09T02:39:46.184Z,26.76
2023-05-09T02:40:46.175Z,26.76
2023-05-09T02:41:46.146Z,26.76
2023-05-09T02:42:46.248Z,26.75
2023-05-09T02:43:46.149Z,26.76
2023-05-09T02:44:46.127Z,26.78
2023-05-09T02:45:46.149Z,26.76
2023-05-09T02:46:46.096Z,26.78
2023-05-09T02:47:46.130Z,26.76
2023-05-09T02:48:46.097Z,26.78
2023-05-09T02:49:46.076Z,26.75
2023-05-09T02:50:46.069Z,26.78
2023-05-09T02:51:46.074Z,26.75
2023-05-09T02:52:46.087Z,26.76
2023-05-09T02:53:46.056Z,26.78
2023-05-09T02:54:46.053Z,26.75
2023-05-09T02:55:46.035Z,26.76
2023-05-09T02:56:46.038Z,26.76
2023-05-09T02:57:46.002Z,26.73
2023-05-09T02:58:46.123Z,26.76
2023-05-09T02:59:46.033Z,26.75
2023-05-09T03:00:45.997Z,26.76
2023-05-09T03:01:47.013Z,26.76
2023-05-09T03:02:46.113Z,26.76
2023-05-09T03:03:46.111Z,26.76
2023-05-09T03:04:45.978Z,26.78
2023-05-09T03:05:45.971Z,26.75
2023-05-09T03:06:45.968Z,26.76
2023-05-09T03:07:45.986Z,26.75
2023-05-09T03:08:45.978Z,26.78
2023-05-09T03:09:45.951Z,26.75
2023-05-09T03:10:45.977Z,26.76
2023-05-09T03:11:45.943Z,26.75
2023-05-09T03:12:46.007Z,26.78
2023-05-09T03:13:45.970Z,26.75
2023-05-09T03:14:46.054Z,26.76
2023-05-09T03:15:46.004Z,26.78
2023-05-09T03:16:45.939Z,26.75
2023-05-09T03:17:46.013Z,26.79
2023-05-09T03:18:45.966Z,26.73
2023-05-09T03:19:45.942Z,26.78
2023-05-09T03:20:45.966Z,26.76
2023-05-09T03:21:45.937Z,26.76
2023-05-09T03:22:45.949Z,26.78
2023-05-09T03:23:45.957Z,26.78
2023-05-09T03:24:46.082Z,26.76
2023-05-09T03:25:45.907Z,26.76
2023-05-09T03:26:45.945Z,26.79
2023-05-09T03:27:45.944Z,26.76
2023-05-09T03:28:45.917Z,26.75
2023-05-09T03:29:45.944Z,26.76
2023-05-09T03:30:46.016Z,26.76
2023-05-09T03:31:45.916Z,26.76
2023-05-09T03:32:45.981Z,26.76
2023-05-09T03:33:45.928Z,26.75
2023-05-09T03:34:45.908Z,26.78
2023-05-09T03:35:45.939Z,26.76
2023-05-09T03:36:45.889Z,26.75
2023-05-09T03:37:45.901Z,26.76
2023-05-09T03:38:45.917Z,26.76
2023-05-09T03:39:45.929Z,26.76
2023-05-09T03:40:45.980Z,26.78
2023-05-09T03:41:45.913Z,26.75
2023-05-09T03:42:45.930Z,26.78
2023-05-09T03:43:45.914Z,26.75
2023-05-09T03:44:45.907Z,26.76
2023-05-09T03:45:45.926Z,26.76
2023-05-09T03:46:46.046Z,26.78
2023-05-09T03:47:45.961Z,26.73
2023-05-09T03:48:45.932Z,26.76
2023-05-09T03:49:45.923Z,26.78
2023-05-09T03:50:45.929Z,26.73
2023-05-09T03:51:45.932Z,26.75
2023-05-09T03:52:45.944Z,26.73
2023-05-09T03:53:45.911Z,26.75
2023-05-09T03:54:45.929Z,26.75
2023-05-09T03:55:45.904Z,26.73
2023-05-09T03:56:45.918Z,26.73
2023-05-09T03:57:45.935Z,26.75
2023-05-09T03:58:45.896Z,26.75
2023-05-09T03:59:45.918Z,26.75
2023-05-09T04:00:45.928Z,26.73
2023-05-09T04:01:45.925Z,26.73
2023-05-09T04:02:46.020Z,26.75
2023-05-09T04:03:46.001Z,26.75
2023-05-09T04:04:45.916Z,26.72
2023-05-09T04:05:45.921Z,26.72
2023-05-09T04:06:45.918Z,26.76
2023-05-09T04:07:45.904Z,26.75
2023-05-09T04:08:45.898Z,26.75
2023-05-09T04:09:45.922Z,26.73
2023-05-09T04:10:45.933Z,26.73
2023-05-09T04:11:45.930Z,26.76
2023-05-09T04:12:45.954Z,26.73
2023-05-09T04:13:45.915Z,26.75
2023-05-09T04:14:48.727Z,26.72
2023-05-09T04:15:45.930Z,26.73
2023-05-09T04:16:46.011Z,26.75
2023-05-09T04:17:45.956Z,26.75
2023-05-09T04:18:46.001Z,26.73
2023-05-09T04:19:45.901Z,26.73
2023-05-09T04:20:45.884Z,26.75
2023-05-09T04:21:45.894Z,26.75
2023-05-09T04:22:47.058Z,26.71
2023-05-09T04:23:46.012Z,26.75
2023-05-09T04:24:46.179Z,26.75
2023-05-09T04:25:46.021Z,26.76
2023-05-09T04:26:46.494Z,26.72
2023-05-09T04:27:45.846Z,26.72
2023-05-09T04:28:45.809Z,26.75
2023-05-09T04:29:45.823Z,26.72
2023-05-09T04:30:45.822Z,26.73
2023-05-09T04:31:45.929Z,26.73
2023-05-09T04:32:45.899Z,26.73
2023-05-09T04:33:45.779Z,26.76
2023-05-09T04:34:45.862Z,26.73
2023-05-09T04:35:45.772Z,26.76
2023-05-09T04:36:45.784Z,26.75
2023-05-09T04:37:45.759Z,26.75
2023-05-09T04:38:45.732Z,26.76
2023-05-09T04:39:45.754Z,26.73
2023-05-09T04:40:45.739Z,26.75
2023-05-09T04:41:45.730Z,26.75
2023-05-09T04:42:45.719Z,26.76
2023-05-09T04:43:45.732Z,26.75
2023-05-09T04:44:45.684Z,26.75
2023-05-09T04:45:45.691Z,26.76
2023-05-09T04:46:45.800Z,26.75
2023-05-09T04:47:45.725Z,26.75
2023-05-09T04:48:45.641Z,26.75
2023-05-09T04:49:45.683Z,26.75
2023-05-09T04:50:45.725Z,26.76
2023-05-09T04:51:45.626Z,26.76
2023-05-09T04:52:45.605Z,26.73
2023-05-09T04:53:45.601Z,26.75
2023-05-09T04:54:45.637Z,26.76
2023-05-09T04:55:45.593Z,26.76
2023-05-09T04:56:45.613Z,26.76
2023-05-09T04:57:45.627Z,26.73
2023-05-09T04:58:45.616Z,26.73
2023-05-09T04:59:45.570Z,26.76
2023-05-09T05:00:53.014Z,26.75
2023-05-09T05:01:45.606Z,26.78
2023-05-09T05:02:45.590Z,26.76
2023-05-09T05:03:45.505Z,26.76
2023-05-09T05:04:45.582Z,26.78
2023-05-09T05:05:45.605Z,26.76
2023-05-09T05:06:45.609Z,26.76
2023-05-09T05:07:45.516Z,26.73
2023-05-09T05:08:45.510Z,26.78
2023-05-09T05:09:45.505Z,26.76
2023-05-09T05:10:45.466Z,26.76
2023-05-09T05:11:57.119Z,26.76
2023-05-09T05:12:46.573Z,26.75
2023-05-09T05:13:45.458Z,26.78
2023-05-09T05:14:45.479Z,26.76
2023-05-09T05:15:45.503Z,26.75
2023-05-09T05:16:45.408Z,26.75
2023-05-09T05:17:45.536Z,26.78
2023-05-09T05:18:45.409Z,26.76
2023-05-09T05:19:45.425Z,26.76
2023-05-09T05:20:45.408Z,26.78
2023-05-09T05:21:45.411Z,26.78
2023-05-09T05:22:45.478Z,26.76
2023-05-09T05:23:45.401Z,26.78
2023-05-09T05:24:45.410Z,26.79
2023-05-09T05:25:45.380Z,26.78
2023-05-09T05:26:45.370Z,26.79
2023-05-09T05:27:45.382Z,26.78
2023-05-09T05:28:45.326Z,26.78
2023-05-09T05:29:45.353Z,26.76
2023-05-09T05:30:45.356Z,26.78
2023-05-09T05:31:45.438Z,26.76
2023-05-09T05:32:45.350Z,26.72
2023-05-09T05:33:45.288Z,26.68
2023-05-09T05:34:45.302Z,26.68
2023-05-09T05:35:45.304Z,26.69
2023-05-09T05:36:45.312Z,26.66
2023-05-09T05:37:46.095Z,26.65
2023-05-09T05:38:45.353Z,26.62
2023-05-09T05:39:45.257Z,26.63
2023-05-09T05:40:45.267Z,26.68
2023-05-09T05:41:45.561Z,26.69
2023-05-09T05:42:45.273Z,26.72
2023-05-09T05:43:45.246Z,26.73
2023-05-09T05:44:45.224Z,26.79
2023-05-09T05:47:04.288Z,26.83
2023-05-09T05:48:04.173Z,26.78
2023-05-09T05:49:04.100Z,26.71
2023-05-09T05:50:04.101Z,26.53
2023-05-09T05:51:04.071Z,26.35
2023-05-09T05:52:04.078Z,26.12
2023-05-09T05:53:04.047Z,25.94
2023-05-09T05:54:04.153Z,25.81
2023-05-09T05:55:04.028Z,25.70
2023-05-09T05:56:04.043Z,25.62
2023-05-09T05:57:04.039Z,25.59
2023-05-09T05:58:04.006Z,25.52
2023-05-09T05:59:04.039Z,25.49
2023-05-09T06:00:03.991Z,25.44
2023-05-09T06:01:04.018Z,25.40
2023-05-09T06:02:04.391Z,25.39
2023-05-09T06:03:04.058Z,25.33
2023-05-09T06:04:04.040Z,25.30
2023-05-09T06:05:03.967Z,25.22
2023-05-09T06:06:03.966Z,25.12
2023-05-09T06:07:04.290Z,25.02
2023-05-09T06:08:03.970Z,24.92
2023-05-09T06:09:03.925Z,24.84
2023-05-09T06:10:04.029Z,24.72
2023-05-09T06:11:03.940Z,24.71
2023-05-09T06:12:03.935Z,24.72
2023-05-09T06:13:03.960Z,24.79
2023-05-09T06:14:03.927Z,24.84
2023-05-09T06:15:03.942Z,24.95
2023-05-09T06:16:18.580Z,25.02
2023-05-09T06:17:04.922Z,25.13
2023-05-09T06:18:04.309Z,25.22
2023-05-09T06:19:03.891Z,25.32
2023-05-09T06:20:03.926Z,25.42
2023-05-09T06:21:03.884Z,25.47
2023-05-09T06:22:03.876Z,25.56
2023-05-09T06:23:03.853Z,25.60
2023-05-09T06:24:10.250Z,25.64
2023-05-09T06:25:04.858Z,25.73
2023-05-09T06:26:03.933Z,25.77
2023-05-09T06:27:03.840Z,25.81
2023-05-09T06:28:03.833Z,25.85
2023-05-09T06:29:03.838Z,25.88
2023-05-09T06:30:14.063Z,25.88
2023-05-09T06:31:04.820Z,25.90
2023-05-09T06:32:03.806Z,25.90
2023-05-09T06:33:03.837Z,25.93
2023-05-09T06:34:03.862Z,25.93
2023-05-09T06:35:03.756Z,25.91
2023-05-09T06:36:03.772Z,25.94
2023-05-09T06:37:03.741Z,25.91
2023-05-09T06:38:03.741Z,25.97
2023-05-09T06:39:03.710Z,25.97
2023-05-09T06:40:03.810Z,25.98
2023-05-09T06:41:03.841Z,25.98
2023-05-09T06:42:03.888Z,26.03
2023-05-09T06:43:03.968Z,26.03
2023-05-09T06:44:03.995Z,26.01
2023-05-09T06:45:04.084Z,26.03
2023-05-09T06:46:04.137Z,26.07
2023-05-09T06:47:04.164Z,26.04
2023-05-09T06:48:04.280Z,26.04
2023-05-09T06:49:04.308Z,26.07
2023-05-09T06:50:04.300Z,26.11
2023-05-09T06:51:04.353Z,26.11
2023-05-09T06:52:04.396Z,26.09
2023-05-09T06:53:04.807Z,26.11
2023-05-09T06:54:04.540Z,26.08
2023-05-09T06:55:04.578Z,26.09
2023-05-09T06:56:04.626Z,26.08
2023-05-09T06:57:04.689Z,26.04
2023-05-09T06:58:04.825Z,26.05
2023-05-09T06:59:04.803Z,26.07
2023-05-09T07:00:04.872Z,26.04
2023-05-09T07:01:04.933Z,26.04
2023-05-09T07:02:04.990Z,26.03
2023-05-09T07:03:05.331Z,26.03
2023-05-09T07:04:05.044Z,26.04
2023-05-09T07:05:05.188Z,26.01
2023-05-09T07:06:05.201Z,26.00
2023-05-09T07:07:05.218Z,26.01
2023-05-09T07:08:05.324Z,25.98
2023-05-09T07:09:44.940Z,25.94
2023-05-09T07:10:44.910Z,25.95
2023-05-09T07:11:44.926Z,25.90
2023-05-09T07:12:44.930Z,25.88
2023-05-09T07:13:45.165Z,25.87
2023-05-09T07:14:44.894Z,25.87
2023-05-09T07:15:45.050Z,25.79
2023-05-09T07:16:44.948Z,25.76
2023-05-09T07:17:44.939Z,25.72
2023-05-09T07:18:44.907Z,25.73
2023-05-09T07:19:44.851Z,25.76
2023-05-09T07:20:44.833Z,25.73
2023-05-09T07:21:44.822Z,25.73
2023-05-09T07:22:44.887Z,25.70
2023-05-09T07:23:44.835Z,25.67
2023-05-09T07:24:44.806Z,25.72
2023-05-09T07:25:44.794Z,25.77
2023-05-09T07:26:44.844Z,25.80
2023-05-09T07:27:44.808Z,25.83
2023-05-09T07:28:45.140Z,25.87
2023-05-09T07:29:44.859Z,25.90
2023-05-09T07:30:44.826Z,25.93
2023-05-09T07:31:44.800Z,25.98
2023-05-09T07:32:44.743Z,25.94
2023-05-09T07:33:45.116Z,25.93
2023-05-09T07:34:44.786Z,25.91
2023-05-09T07:35:44.741Z,25.83
2023-05-09T07:36:44.747Z,25.69
2023-05-09T07:37:44.730Z,25.56
2023-05-09T07:38:45.103Z,25.43
2023-05-09T07:39:44.705Z,25.30
2023-05-09T07:40:44.689Z,25.19
2023-05-09T07:41:44.692Z,25.11
2023-05-09T07:42:44.676Z,25.12
2023-05-09T07:43:45.103Z,25.15
2023-05-09T07:44:44.689Z,25.19
2023-05-09T07:45:44.694Z,25.29
2023-05-09T07:46:44.656Z,25.39
2023-05-09T07:47:44.715Z,25.47
2023-05-09T07:48:44.679Z,25.57
2023-05-09T07:49:44.683Z,25.64
2023-05-09T07:50:44.637Z,25.73
2023-05-09T07:51:44.628Z,25.79
2023-05-09T07:52:44.604Z,25.88
2023-05-09T07:53:44.607Z,25.95
2023-05-09T07:54:44.609Z,26.03
2023-05-09T07:55:44.588Z,26.09
2023-05-09T07:56:44.597Z,26.17
2023-05-09T07:57:44.604Z,26.21
2023-05-09T07:58:44.554Z,26.27
2023-05-09T07:59:44.582Z,26.31
2023-05-09T08:00:44.545Z,26.35
2023-05-09T08:01:44.667Z,26.41
2023-05-09T08:02:44.766Z,26.45
2023-05-09T08:03:44.755Z,26.51
2023-05-09T08:04:44.780Z,26.48
2023-05-09T08:05:44.833Z,26.58
2023-05-09T08:06:44.887Z,26.60
2023-05-09T08:07:44.954Z,26.63
2023-05-09T08:08:44.930Z,26.65
2023-05-09T08:09:44.981Z,26.66
2023-05-09T08:10:45.034Z,26.72
2023-05-09T08:11:45.023Z,26.73
2023-05-09T08:12:45.065Z,26.76
2023-05-09T08:13:45.096Z,26.78
2023-05-09T08:14:45.071Z,26.82
2023-05-09T08:15:45.109Z,26.82
2023-05-09T08:16:45.126Z,26.83
2023-05-09T08:17:45.272Z,26.87
2023-05-09T08:18:45.630Z,26.87
2023-05-09T08:19:46.128Z,26.87
2023-05-09T08:20:45.154Z,26.87
2023-05-09T08:21:45.177Z,26.92
2023-05-09T08:22:45.172Z,26.94
2023-05-09T08:23:45.674Z,26.99
2023-05-09T08:24:45.197Z,27.02
2023-05-09T08:25:45.209Z,27.00
2023-05-09T08:26:45.212Z,27.04
2023-05-09T08:27:45.213Z,27.06
2023-05-09T08:28:45.246Z,27.06
2023-05-09T08:29:45.660Z,27.07
2023-05-09T08:30:45.233Z,27.09
2023-05-09T08:31:45.325Z,27.14
2023-05-09T08:32:45.381Z,27.18
2023-05-09T08:33:45.387Z,27.22
2023-05-09T08:34:45.683Z,27.18
2023-05-09T08:35:45.379Z,27.04
2023-05-09T08:36:45.403Z,26.89
2023-05-09T08:37:45.408Z,26.81
2023-05-09T08:38:45.421Z,26.72
2023-05-09T08:39:45.464Z,26.72
2023-05-09T08:40:45.475Z,26.71
2023-05-09T08:41:45.533Z,26.71
2023-05-09T08:42:45.566Z,26.68
2023-05-09T08:43:45.574Z,26.68
2023-05-09T08:44:45.569Z,26.63
2023-05-09T08:45:45.621Z,26.63
2023-05-09T08:46:45.686Z,26.62
2023-05-09T08:47:45.695Z,26.62
2023-05-09T08:48:45.742Z,26.62
2023-05-09T08:49:45.832Z,26.59
2023-05-09T08:50:45.800Z,26.52
2023-05-09T08:51:45.812Z,26.49
2023-05-09T08:52:45.830Z,26.44
2023-05-09T08:53:45.869Z,26.44
2023-05-09T08:54:46.161Z,26.42
2023-05-09T08:55:46.028Z,26.48
2023-05-09T08:56:45.982Z,26.51
2023-05-09T08:57:45.977Z,26.55
2023-05-09T08:58:45.978Z,26.59
2023-05-09T08:59:46.008Z,26.62
2023-05-09T09:00:46.028Z,26.65
2023-05-09T09:01:46.076Z,26.69
2023-05-09T09:02:46.060Z,26.75
2023-05-09T09:03:46.028Z,26.78
2023-05-09T09:04:46.172Z,26.83
2023-05-09T09:05:46.216Z,26.87
2023-05-09T09:06:46.205Z,26.90
2023-05-09T09:07:46.231Z,26.93
2023-05-09T09:08:46.319Z,26.99
2023-05-09T09:09:46.342Z,27.02
2023-05-09T09:10:46.400Z,27.04
2023-05-09T09:11:46.469Z,27.09
2023-05-09T09:12:48.685Z,27.11
2023-05-09T09:13:46.535Z,27.13
2023-05-09T09:14:46.524Z,27.17
2023-05-09T09:15:46.485Z,27.20
2023-05-09T09:16:46.484Z,27.22
2023-05-09T09:17:46.512Z,27.23
2023-05-09T09:18:46.495Z,27.27
2023-05-09T09:19:46.495Z,27.27
2023-05-09T09:20:47.576Z,27.32
2023-05-09T09:21:46.572Z,27.33
2023-05-09T09:22:46.434Z,27.37
2023-05-09T09:23:46.422Z,27.38
2023-05-09T09:24:47.456Z,27.40
2023-05-09T09:25:46.409Z,27.43
2023-05-09T09:26:46.433Z,27.44
2023-05-09T09:27:46.409Z,27.43
2023-05-09T09:28:46.385Z,27.43
2023-05-09T09:29:46.392Z,27.37
2023-05-09T09:30:46.393Z,27.36
2023-05-09T09:31:46.482Z,27.34
2023-05-09T09:32:46.410Z,27.30
2023-05-09T09:33:46.339Z,27.29
2023-05-09T09:34:46.365Z,27.26
2023-05-09T09:35:46.326Z,27.27
2023-05-09T09:36:46.371Z,27.24
2023-05-09T09:37:46.412Z,27.26
2023-05-09T09:38:46.386Z,27.23
2023-05-09T09:39:46.688Z,27.24
2023-05-09T09:40:46.493Z,27.27
2023-05-09T09:41:46.564Z,27.27
2023-05-09T09:42:46.602Z,27.32
2023-05-09T09:43:46.681Z,27.34
2023-05-09T09:44:47.182Z,27.40
2023-05-09T09:45:46.723Z,27.41
2023-05-09T09:46:46.743Z,27.43
2023-05-09T09:47:46.778Z,27.44
2023-05-09T09:48:46.777Z,27.36
2023-05-09T09:49:46.834Z,27.27
2023-05-09T09:50:47.193Z,27.22
2023-05-09T09:51:46.927Z,27.14
2023-05-09T09:52:46.936Z,27.04
2023-05-09T09:53:47.031Z,27.00
2023-05-09T09:54:46.903Z,26.99
2023-05-09T09:55:46.894Z,26.97
2023-05-09T09:56:46.936Z,27.00
2023-05-09T09:57:46.982Z,27.02
2023-05-09T09:58:47.034Z,27.03
2023-05-09T09:59:47.041Z,27.07
2023-05-09T10:00:47.204Z,27.07
2023-05-09T10:01:47.239Z,27.07
2023-05-09T10:02:48.331Z,27.10
2023-05-09T10:03:47.336Z,27.10
2023-05-09T10:04:47.474Z,27.10
2023-05-09T10:05:47.457Z,27.11
2023-05-09T10:06:48.104Z,27.14
2023-05-09T10:07:47.595Z,27.13
2023-05-09T10:08:47.669Z,27.16
2023-05-09T10:09:47.788Z,27.14
2023-05-09T10:10:48.658Z,27.16
2023-05-09T10:11:47.812Z,27.17
2023-05-09T10:12:47.894Z,27.13
2023-05-09T10:13:47.978Z,27.14
2023-05-09T10:14:48.028Z,27.13
2023-05-09T10:15:53.738Z,27.14
2023-05-09T10:16:49.114Z,27.11
2023-05-09T10:17:48.132Z,27.10
2023-05-09T10:18:48.182Z,27.11
2023-05-09T10:19:48.676Z,27.10
2023-05-09T10:20:48.085Z,27.11
2023-05-09T10:21:48.003Z,27.11
2023-05-09T10:22:48.005Z,27.11
2023-05-09T10:23:48.026Z,27.14
2023-05-09T10:24:48.099Z,27.14
2023-05-09T10:25:49.093Z,27.16
2023-05-09T10:26:48.174Z,27.14
2023-05-09T10:27:48.247Z,27.16
2023-05-09T10:28:48.274Z,27.17
2023-05-09T10:29:48.362Z,27.18
2023-05-09T10:30:48.442Z,27.20
2023-05-09T10:31:48.591Z,27.18
2023-05-09T10:32:48.611Z,27.17
2023-05-09T10:33:48.601Z,27.18
2023-05-09T10:34:49.181Z,27.17
2023-05-09T10:35:48.731Z,27.18
2023-05-09T10:36:48.844Z,27.20
2023-05-09T10:37:48.841Z,27.18
2023-05-09T10:38:48.940Z,27.20
2023-05-09T10:39:48.955Z,27.16
2023-05-09T10:40:49.226Z,27.16
2023-05-09T10:41:49.202Z,27.11
2023-05-09T10:42:49.131Z,27.09
2023-05-09T10:43:49.218Z,27.06
2023-05-09T10:44:49.183Z,27.03
2023-05-09T10:45:49.208Z,27.06
2023-05-09T10:46:49.254Z,27.10
2023-05-09T10:47:49.338Z,27.07
2023-05-09T10:48:49.336Z,27.06
2023-05-09T10:49:49.411Z,27.10
2023-05-09T10:50:49.497Z,27.10
2023-05-09T10:51:49.532Z,27.13
2023-05-09T10:52:49.613Z,27.14
2023-05-09T10:53:49.682Z,27.16
2023-05-09T10:54:49.727Z,27.17
2023-05-09T10:55:49.758Z,27.20
2023-05-09T10:56:49.809Z,27.20
2023-05-09T10:57:49.953Z,27.23
2023-05-09T10:58:49.848Z,27.23
2023-05-09T10:59:49.906Z,27.23
2023-05-09T11:00:49.935Z,27.23
2023-05-09T11:01:49.977Z,27.24
2023-05-09T11:02:50.036Z,27.26
2023-05-09T11:03:50.068Z,27.29
2023-05-09T11:04:49.994Z,27.32
2023-05-09T11:05:50.219Z,27.32
2023-05-09T11:06:50.025Z,27.30
2023-05-09T11:07:49.973Z,27.33
2023-05-09T11:08:50.030Z,27.34
2023-05-09T11:09:50.045Z,27.33
2023-05-09T11:10:50.043Z,27.33
2023-05-09T11:11:50.084Z,27.33
2023-05-09T11:12:50.206Z,27.34
2023-05-09T11:13:50.313Z,27.33
2023-05-09T11:14:50.266Z,27.34
2023-05-09T11:15:50.360Z,27.36
2023-05-09T11:16:50.383Z,27.38
2023-05-09T11:17:50.457Z,27.40
2023-05-09T11:18:50.511Z,27.43
2023-05-09T11:19:50.574Z,27.43
2023-05-09T11:20:50.625Z,27.44
2023-05-09T11:21:50.763Z,27.43
2023-05-09T11:22:50.703Z,27.45
2023-05-09T11:23:51.997Z,27.47
2023-05-09T11:24:50.756Z,27.50
2023-05-09T11:25:51.278Z,27.53
2023-05-09T11:26:51.696Z,27.51
2023-05-09T11:27:50.808Z,27.51
2023-05-09T11:28:50.716Z,27.54
2023-05-09T11:29:50.821Z,27.54
2023-05-09T11:30:50.685Z,27.58
2023-05-09T11:31:50.714Z,27.64
2023-05-09T11:32:50.814Z,27.64
2023-05-09T11:33:50.742Z,27.71
2023-05-09T11:34:50.650Z,27.72
2023-05-09T11:35:50.761Z,27.77
2023-05-09T11:36:50.671Z,27.81
2023-05-09T11:37:50.659Z,27.81
2023-05-09T11:38:50.636Z,27.82
2023-05-09T11:39:50.658Z,27.84
2023-05-09T11:40:50.651Z,27.84
2023-05-09T11:41:50.617Z,27.87
2023-05-09T11:42:50.628Z,27.87
2023-05-09T11:43:50.616Z,27.85
2023-05-09T11:44:50.629Z,27.89
2023-05-09T11:45:51.080Z,27.91
2023-05-09T11:46:50.939Z,27.95
2023-05-09T11:47:50.642Z,27.92
2023-05-09T11:48:50.572Z,27.94
2023-05-09T11:49:50.581Z,27.94
2023-05-09T11:50:50.567Z,27.96
2023-05-09T11:51:50.568Z,27.95
2023-05-09T11:52:50.526Z,27.96
2023-05-09T11:53:50.568Z,27.95
2023-05-09T11:54:50.550Z,27.99
2023-05-09T11:55:50.566Z,27.98
2023-05-09T11:56:50.537Z,27.98
2023-05-09T11:57:50.519Z,27.98
2023-05-09T11:58:50.496Z,27.98
2023-05-09T11:59:50.506Z,28.01
2023-05-09T12:00:50.558Z,28.01
2023-05-09T12:01:50.568Z,28.01
2023-05-09T12:02:50.516Z,28.02
2023-05-09T12:03:50.642Z,28.02
2023-05-09T12:04:50.465Z,28.02
2023-05-09T12:05:50.484Z,28.01
2023-05-09T12:06:50.460Z,28.02
2023-05-09T12:07:50.415Z,28.04
2023-05-09T12:08:50.476Z,28.01
2023-05-09T12:09:50.440Z,28.05
2023-05-09T12:10:50.446Z,28.04
2023-05-09T12:11:50.449Z,28.04
2023-05-09T12:12:50.476Z,28.04
2023-05-09T12:13:50.400Z,28.05
2023-05-09T12:14:50.378Z,28.04
2023-05-09T12:15:50.497Z,28.04
2023-05-09T12:16:50.752Z,28.05
2023-05-09T12:17:52.018Z,28.05
2023-05-09T12:18:50.389Z,28.05
2023-05-09T12:19:50.349Z,28.04
2023-05-09T12:20:50.389Z,28.05
2023-05-09T12:21:50.337Z,28.08
2023-05-09T12:22:50.342Z,28.04
2023-05-09T12:23:52.494Z,28.04
2023-05-09T12:24:50.297Z,28.05
2023-05-09T12:25:50.377Z,28.04
2023-05-09T12:26:50.319Z,28.01
2023-05-09T12:27:50.298Z,27.96
2023-05-09T12:28:50.301Z,27.96
2023-05-09T12:29:50.301Z,27.94
2023-05-09T12:30:50.268Z,27.91
2023-05-09T12:31:50.338Z,27.91
2023-05-09T12:32:50.319Z,27.92
2023-05-09T12:33:50.376Z,27.88
2023-05-09T12:34:50.245Z,27.89
2023-05-09T12:35:50.370Z,27.88
2023-05-09T12:36:50.254Z,27.85
2023-05-09T12:37:50.264Z,27.85
2023-05-09T12:38:50.245Z,27.85
2023-05-09T12:39:50.230Z,27.85
2023-05-09T12:40:50.222Z,27.82
2023-05-09T12:42:01.208Z,27.87
2023-05-09T12:42:51.214Z,27.87
2023-05-09T12:43:50.214Z,27.87
2023-05-09T12:44:50.154Z,27.85
2023-05-09T12:45:50.173Z,27.89
2023-05-09T12:46:50.273Z,27.87
2023-05-09T12:47:50.186Z,27.88
2023-05-09T12:48:50.194Z,27.87
2023-05-09T12:49:50.243Z,27.85
2023-05-09T12:50:50.138Z,27.87
2023-05-09T12:51:50.145Z,27.89
2023-05-09T12:53:02.607Z,27.89
2023-05-09T12:53:51.113Z,27.89
2023-05-09T12:54:50.104Z,27.89